Terminal Aerodrome Forecast
Issued by NWS Boston, MA

Home | Current Version | Previous Version | Text Only | Print | Product List | Glossary On
Versions: 1 2 3 4 5 6 7 8 9 10 11 12 13 14 15 16 17 18 19 20 21 22 23 24 25 26 27 28 29 30 31 32 33 34 35 36 37 38 39 40 41 42 43 44 45 46 47 48 49 50
000
FTUS41 KBOX 270543
TAFBOS
TAF
KBOS 270543Z 2706/2812 01018G25KT 1/2SM SN BLSN FG OVC008
     FM270800 01027G43KT 1/4SM +SN BLSN OVC005
     FM271800 36029G48KT 1/2SM SN BLSN OVC005
     FM272100 36027G40KT 1/2SM SN BLSN OVC003
     FM280000 35024G39KT 1SM -SN BLSN OVC003
     FM280500 33018G29KT 6SM BLSN OVC008
     FM280600 33016G28KT P6SM OVC015=

USA.gov is the U.S. government's official web portal to all federal, state and local government web resources and services.